sensor_id;sensor_type;location;lat;lon;timestamp;temperature;humidity
15596;DHT22;7898;48.658;9.068;2023-02-26T00:02:20;0.00;99.90
15596;DHT22;7898;48.658;9.068;2023-02-26T00:04:47;0.00;99.90
15596;DHT22;7898;48.658;9.068;2023-02-26T00:07:14;0.00;99.90
15596;DHT22;7898;48.658;9.068;2023-02-26T00:09:41;0.00;99.90
15596;DHT22;7898;48.658;9.068;2023-02-26T00:12:10;0.00;99.90
15596;DHT22;7898;48.658;9.068;2023-02-26T00:14:39;0.00;99.90
15596;DHT22;7898;48.658;9.068;2023-02-26T00:17:24;-0.10;99.90
15596;DHT22;7898;48.658;9.068;2023-02-26T00:19:55;0.50;99.90
15596;DHT22;7898;48.658;9.068;2023-02-26T00:22:23;-0.80;99.90
15596;DHT22;7898;48.658;9.068;2023-02-26T00:24:51;-0.20;99.90
15596;DHT22;7898;48.658;9.068;2023-02-26T00:27:18;-0.30;99.90
15596;DHT22;7898;48.658;9.068;2023-02-26T00:29:47;-0.30;99.90
15596;DHT22;7898;48.658;9.068;2023-02-26T00:32:14;-0.40;99.90
15596;DHT22;7898;48.658;9.068;2023-02-26T00:34:43;-0.40;99.90
15596;DHT22;7898;48.658;9.068;2023-02-26T00:37:16;-0.40;99.90
15596;DHT22;7898;48.658;9.068;2023-02-26T00:39:53;0.30;99.90
15596;DHT22;7898;48.658;9.068;2023-02-26T00:42:22;-0.50;99.90
15596;DHT22;7898;48.658;9.068;2023-02-26T00:44:52;-0.50;99.90
15596;DHT22;7898;48.658;9.068;2023-02-26T00:47:27;-0.70;99.90
15596;DHT22;7898;48.658;9.068;2023-02-26T00:50:04;-0.60;99.90
15596;DHT22;7898;48.658;9.068;2023-02-26T00:52:38;-0.60;99.90
15596;DHT22;7898;48.658;9.068;2023-02-26T00:55:07;-0.70;99.90
15596;DHT22;7898;48.658;9.068;2023-02-26T00:57:34;-0.70;99.90
15596;DHT22;7898;48.658;9.068;2023-02-26T01:00:03;-0.70;99.90
15596;DHT22;7898;48.658;9.068;2023-02-26T01:02:33;-0.70;99.90
15596;DHT22;7898;48.658;9.068;2023-02-26T01:05:00;-0.70;99.90
15596;DHT22;7898;48.658;9.068;2023-02-26T01:07:29;-0.70;99.90
15596;DHT22;7898;48.658;9.068;2023-02-26T01:09:58;0.00;99.90
15596;DHT22;7898;48.658;9.068;2023-02-26T01:12:25;-0.80;99.90
15596;DHT22;7898;48.658;9.068;2023-02-26T01:14:53;-0.80;99.90
15596;DHT22;7898;48.658;9.068;2023-02-26T01:17:25;-1.40;99.90
15596;DHT22;7898;48.658;9.068;2023-02-26T01:19:57;-0.80;99.90
15596;DHT22;7898;48.658;9.068;2023-02-26T01:22:31;-0.90;99.90
15596;DHT22;7898;48.658;9.068;2023-02-26T01:25:02;-0.80;99.90
15596;DHT22;7898;48.658;9.068;2023-02-26T01:27:30;-0.10;99.90
15596;DHT22;7898;48.658;9.068;2023-02-26T01:29:57;-0.10;99.90
15596;DHT22;7898;48.658;9.068;2023-02-26T01:32:32;-0.80;99.90
15596;DHT22;7898;48.658;9.068;2023-02-26T01:35:06;-0.90;99.90
15596;DHT22;7898;48.658;9.068;2023-02-26T01:37:43;-0.90;99.90
15596;DHT22;7898;48.658;9.068;2023-02-26T01:40:33;-1.00;99.90
15596;DHT22;7898;48.658;9.068;2023-02-26T01:43:06;-1.00;99.90
15596;DHT22;7898;48.658;9.068;2023-02-26T01:45:42;-1.00;99.90
15596;DHT22;7898;48.658;9.068;2023-02-26T01:48:21;-1.10;99.90
15596;DHT22;7898;48.658;9.068;2023-02-26T01:50:52;-0.90;99.90
15596;DHT22;7898;48.658;9.068;2023-02-26T01:53:21;-1.10;99.90
15596;DHT22;7898;48.658;9.068;2023-02-26T01:55:53;-1.20;99.90
15596;DHT22;7898;48.658;9.068;2023-02-26T01:58:22;-1.20;99.90
15596;DHT22;7898;48.658;9.068;2023-02-26T02:00:49;-0.50;99.90
15596;DHT22;7898;48.658;9.068;2023-02-26T02:03:18;-1.20;99.90
15596;DHT22;7898;48.658;9.068;2023-02-26T02:05:48;-1.20;99.90
15596;DHT22;7898;48.658;9.068;2023-02-26T02:08:16;-0.80;99.90
15596;DHT22;7898;48.658;9.068;2023-02-26T02:10:45;-1.40;99.90
15596;DHT22;7898;48.658;9.068;2023-02-26T02:13:22;-1.40;99.90
15596;DHT22;7898;48.658;9.068;2023-02-26T02:15:58;-1.40;99.90
15596;DHT22;7898;48.658;9.068;2023-02-26T02:18:36;-1.50;99.90
15596;DHT22;7898;48.658;9.068;2023-02-26T02:24:09;-1.60;99.90
15596;DHT22;7898;48.658;9.068;2023-02-26T02:26:58;-0.80;99.90
15596;DHT22;7898;48.658;9.068;2023-02-26T02:30:01;-1.50;99.90
15596;DHT22;7898;48.658;9.068;2023-02-26T02:32:35;-1.50;99.90
15596;DHT22;7898;48.658;9.068;2023-02-26T02:35:10;-1.50;99.90
15596;DHT22;7898;48.658;9.068;2023-02-26T02:37:43;-1.50;99.90
15596;DHT22;7898;48.658;9.068;2023-02-26T02:40:14;-1.10;99.90
15596;DHT22;7898;48.658;9.068;2023-02-26T02:42:45;-1.60;99.90
15596;DHT22;7898;48.658;9.068;2023-02-26T02:45:18;-1.70;99.90
15596;DHT22;7898;48.658;9.068;2023-02-26T02:47:52;-1.80;99.90
15596;DHT22;7898;48.658;9.068;2023-02-26T02:50:26;-1.80;99.90
15596;DHT22;7898;48.658;9.068;2023-02-26T02:52:57;-0.90;99.90
15596;DHT22;7898;48.658;9.068;2023-02-26T02:55:29;-1.10;99.90
15596;DHT22;7898;48.658;9.068;2023-02-26T02:57:59;-1.90;99.90
15596;DHT22;7898;48.658;9.068;2023-02-26T03:00:28;-1.70;99.90
15596;DHT22;7898;48.658;9.068;2023-02-26T03:03:02;-2.00;99.90
15596;DHT22;7898;48.658;9.068;2023-02-26T03:05:32;-2.00;99.90
15596;DHT22;7898;48.658;9.068;2023-02-26T03:08:01;-2.10;99.90
15596;DHT22;7898;48.658;9.068;2023-02-26T03:10:30;-2.10;99.90
15596;DHT22;7898;48.658;9.068;2023-02-26T03:12:57;-2.10;99.90
15596;DHT22;7898;48.658;9.068;2023-02-26T03:15:32;-1.90;99.90
15596;DHT22;7898;48.658;9.068;2023-02-26T03:18:11;-2.20;99.90
15596;DHT22;7898;48.658;9.068;2023-02-26T03:20:46;-2.20;99.90
15596;DHT22;7898;48.658;9.068;2023-02-26T03:23:20;-2.30;99.90
15596;DHT22;7898;48.658;9.068;2023-02-26T03:25:53;-2.30;99.90
15596;DHT22;7898;48.658;9.068;2023-02-26T03:28:24;-2.20;99.90
15596;DHT22;7898;48.658;9.068;2023-02-26T03:30:56;-2.30;99.90
15596;DHT22;7898;48.658;9.068;2023-02-26T03:33:32;-2.30;99.90
15596;DHT22;7898;48.658;9.068;2023-02-26T03:36:03;-2.40;99.90
15596;DHT22;7898;48.658;9.068;2023-02-26T03:38:38;-2.30;99.90
15596;DHT22;7898;48.658;9.068;2023-02-26T03:41:09;-2.20;99.90
15596;DHT22;7898;48.658;9.068;2023-02-26T03:43:40;-2.20;99.90
15596;DHT22;7898;48.658;9.068;2023-02-26T03:46:13;-2.30;99.90
15596;DHT22;7898;48.658;9.068;2023-02-26T03:48:42;-2.30;99.90
15596;DHT22;7898;48.658;9.068;2023-02-26T03:51:11;-2.40;99.90
15596;DHT22;7898;48.658;9.068;2023-02-26T03:53:43;-2.40;99.90
15596;DHT22;7898;48.658;9.068;2023-02-26T03:56:18;-2.40;99.90
15596;DHT22;7898;48.658;9.068;2023-02-26T03:58:46;-2.20;99.90
15596;DHT22;7898;48.658;9.068;2023-02-26T04:01:17;-2.60;99.90
15596;DHT22;7898;48.658;9.068;2023-02-26T04:03:49;-1.90;99.90
15596;DHT22;7898;48.658;9.068;2023-02-26T04:06:19;-2.60;99.90
15596;DHT22;7898;48.658;9.068;2023-02-26T04:08:47;-2.70;99.90
15596;DHT22;7898;48.658;9.068;2023-02-26T04:11:15;-2.70;99.90
15596;DHT22;7898;48.658;9.068;2023-02-26T04:13:43;-2.70;99.90
15596;DHT22;7898;48.658;9.068;2023-02-26T04:16:11;-2.80;99.90
15596;DHT22;7898;48.658;9.068;2023-02-26T04:18:38;-2.10;99.90
15596;DHT22;7898;48.658;9.068;2023-02-26T04:21:10;-2.80;99.90
15596;DHT22;7898;48.658;9.068;2023-02-26T04:23:37;-2.70;99.90
15596;DHT22;7898;48.658;9.068;2023-02-26T04:26:04;-2.10;99.90
15596;DHT22;7898;48.658;9.068;2023-02-26T04:28:31;-2.60;99.90
15596;DHT22;7898;48.658;9.068;2023-02-26T04:30:59;-2.50;99.90
15596;DHT22;7898;48.658;9.068;2023-02-26T04:33:26;-2.40;99.90
15596;DHT22;7898;48.658;9.068;2023-02-26T04:35:53;-2.50;99.90
15596;DHT22;7898;48.658;9.068;2023-02-26T04:38:21;-2.60;99.90
15596;DHT22;7898;48.658;9.068;2023-02-26T04:40:51;-1.80;99.90
15596;DHT22;7898;48.658;9.068;2023-02-26T04:43:18;-1.80;99.90
15596;DHT22;7898;48.658;9.068;2023-02-26T04:45:45;-2.90;99.90
15596;DHT22;7898;48.658;9.068;2023-02-26T04:48:13;-2.90;99.90
15596;DHT22;7898;48.658;9.068;2023-02-26T04:50:40;-3.00;99.90
15596;DHT22;7898;48.658;9.068;2023-02-26T04:53:07;-3.00;99.90
15596;DHT22;7898;48.658;9.068;2023-02-26T04:55:36;-3.10;99.90
15596;DHT22;7898;48.658;9.068;2023-02-26T04:58:04;-3.10;99.90
15596;DHT22;7898;48.658;9.068;2023-02-26T05:00:31;-3.10;99.90
15596;DHT22;7898;48.658;9.068;2023-02-26T05:02:58;-3.10;99.90
15596;DHT22;7898;48.658;9.068;2023-02-26T05:05:25;-3.10;99.90
15596;DHT22;7898;48.658;9.068;2023-02-26T05:07:52;-3.10;99.90
15596;DHT22;7898;48.658;9.068;2023-02-26T05:10:23;-2.20;99.90
15596;DHT22;7898;48.658;9.068;2023-02-26T05:12:52;-3.20;99.90
15596;DHT22;7898;48.658;9.068;2023-02-26T05:15:19;-3.30;99.90
15596;DHT22;7898;48.658;9.068;2023-02-26T05:17:45;-2.70;99.90
15596;DHT22;7898;48.658;9.068;2023-02-26T05:20:13;-3.10;99.90
15596;DHT22;7898;48.658;9.068;2023-02-26T05:22:40;-3.00;99.90
15596;DHT22;7898;48.658;9.068;2023-02-26T05:25:08;-3.10;99.90
15596;DHT22;7898;48.658;9.068;2023-02-26T05:27:36;-3.00;99.90
15596;DHT22;7898;48.658;9.068;2023-02-26T05:30:07;-3.00;99.90
15596;DHT22;7898;48.658;9.068;2023-02-26T05:32:35;-3.00;99.90
15596;DHT22;7898;48.658;9.068;2023-02-26T05:35:02;-3.00;99.90
15596;DHT22;7898;48.658;9.068;2023-02-26T05:37:29;-3.00;99.90
15596;DHT22;7898;48.658;9.068;2023-02-26T05:39:55;-3.00;99.90
15596;DHT22;7898;48.658;9.068;2023-02-26T05:42:22;-3.00;99.90
15596;DHT22;7898;48.658;9.068;2023-02-26T05:44:49;-3.10;99.90
15596;DHT22;7898;48.658;9.068;2023-02-26T05:47:17;-3.10;99.90
15596;DHT22;7898;48.658;9.068;2023-02-26T05:49:44;-2.70;99.90
15596;DHT22;7898;48.658;9.068;2023-02-26T05:52:11;-3.20;99.90
15596;DHT22;7898;48.658;9.068;2023-02-26T05:54:38;-3.20;99.90
15596;DHT22;7898;48.658;9.068;2023-02-26T05:57:05;-3.30;99.90
15596;DHT22;7898;48.658;9.068;2023-02-26T05:59:32;-3.30;99.90
15596;DHT22;7898;48.658;9.068;2023-02-26T06:01:59;-3.40;99.90
15596;DHT22;7898;48.658;9.068;2023-02-26T06:04:27;-3.40;99.90
15596;DHT22;7898;48.658;9.068;2023-02-26T06:06:54;-3.40;99.90
15596;DHT22;7898;48.658;9.068;2023-02-26T06:09:21;-2.60;99.90
15596;DHT22;7898;48.658;9.068;2023-02-26T06:11:48;-3.40;99.90
15596;DHT22;7898;48.658;9.068;2023-02-26T06:14:15;-3.40;99.90
15596;DHT22;7898;48.658;9.068;2023-02-26T06:16:42;-3.40;99.90
15596;DHT22;7898;48.658;9.068;2023-02-26T06:19:09;-3.40;99.90
15596;DHT22;7898;48.658;9.068;2023-02-26T06:21:37;-2.50;99.90
15596;DHT22;7898;48.658;9.068;2023-02-26T06:24:05;-3.40;99.90
15596;DHT22;7898;48.658;9.068;2023-02-26T06:26:32;-3.30;99.90
15596;DHT22;7898;48.658;9.068;2023-02-26T06:28:59;-3.30;99.90
15596;DHT22;7898;48.658;9.068;2023-02-26T06:31:26;-3.30;99.90
15596;DHT22;7898;48.658;9.068;2023-02-26T06:33:53;-3.20;99.90
15596;DHT22;7898;48.658;9.068;2023-02-26T06:36:20;-3.20;99.90
15596;DHT22;7898;48.658;9.068;2023-02-26T06:38:48;-3.20;99.90
15596;DHT22;7898;48.658;9.068;2023-02-26T06:41:15;-3.20;99.90
15596;DHT22;7898;48.658;9.068;2023-02-26T06:43:42;-3.20;99.90
15596;DHT22;7898;48.658;9.068;2023-02-26T06:46:09;-3.20;99.90
15596;DHT22;7898;48.658;9.068;2023-02-26T06:48:36;-3.20;99.90
15596;DHT22;7898;48.658;9.068;2023-02-26T06:51:04;-2.40;99.90
15596;DHT22;7898;48.658;9.068;2023-02-26T06:53:31;-3.10;99.90
15596;DHT22;7898;48.658;9.068;2023-02-26T06:56:00;-3.10;99.90
15596;DHT22;7898;48.658;9.068;2023-02-26T06:58:27;-2.80;99.90
15596;DHT22;7898;48.658;9.068;2023-02-26T07:00:54;-3.00;99.90
15596;DHT22;7898;48.658;9.068;2023-02-26T07:03:21;-2.90;99.90
15596;DHT22;7898;48.658;9.068;2023-02-26T07:05:49;-2.30;99.90
15596;DHT22;7898;48.658;9.068;2023-02-26T07:08:16;-2.80;99.90
15596;DHT22;7898;48.658;9.068;2023-02-26T07:10:43;-2.40;99.90
15596;DHT22;7898;48.658;9.068;2023-02-26T07:13:12;-2.70;99.90
15596;DHT22;7898;48.658;9.068;2023-02-26T07:15:39;-1.60;99.90
15596;DHT22;7898;48.658;9.068;2023-02-26T07:18:05;-2.50;99.90
15596;DHT22;7898;48.658;9.068;2023-02-26T07:20:32;-2.20;99.90
15596;DHT22;7898;48.658;9.068;2023-02-26T07:23:00;-2.50;99.90
15596;DHT22;7898;48.658;9.068;2023-02-26T07:25:27;-2.50;99.90
15596;DHT22;7898;48.658;9.068;2023-02-26T07:27:54;-2.50;99.90
15596;DHT22;7898;48.658;9.068;2023-02-26T07:30:24;-2.20;99.90
15596;DHT22;7898;48.658;9.068;2023-02-26T07:32:51;-2.10;99.90
15596;DHT22;7898;48.658;9.068;2023-02-26T07:35:18;-1.90;99.90
15596;DHT22;7898;48.658;9.068;2023-02-26T07:37:45;-0.50;99.90
15596;DHT22;7898;48.658;9.068;2023-02-26T07:40:12;-0.70;99.90
15596;DHT22;7898;48.658;9.068;2023-02-26T07:42:40;-0.60;99.90
15596;DHT22;7898;48.658;9.068;2023-02-26T07:45:07;0.20;99.90
15596;DHT22;7898;48.658;9.068;2023-02-26T07:47:36;0.30;99.90
15596;DHT22;7898;48.658;9.068;2023-02-26T07:50:04;0.70;99.90
15596;DHT22;7898;48.658;9.068;2023-02-26T07:52:31;1.00;99.90
15596;DHT22;7898;48.658;9.068;2023-02-26T07:54:58;1.90;99.90
15596;DHT22;7898;48.658;9.068;2023-02-26T07:57:25;1.50;99.90
15596;DHT22;7898;48.658;9.068;2023-02-26T07:59:52;0.40;99.90
15596;DHT22;7898;48.658;9.068;2023-02-26T08:02:19;0.80;99.90
15596;DHT22;7898;48.658;9.068;2023-02-26T08:04:49;-0.10;99.90
15596;DHT22;7898;48.658;9.068;2023-02-26T08:07:16;0.00;99.90
15596;DHT22;7898;48.658;9.068;2023-02-26T08:09:43;0.90;99.90
15596;DHT22;7898;48.658;9.068;2023-02-26T08:12:11;0.80;99.90
15596;DHT22;7898;48.658;9.068;2023-02-26T08:14:38;-0.30;99.90
15596;DHT22;7898;48.658;9.068;2023-02-26T08:17:06;0.40;99.90
15596;DHT22;7898;48.658;9.068;2023-02-26T08:19:33;-0.80;99.90
15596;DHT22;7898;48.658;9.068;2023-02-26T08:22:02;-0.90;99.90
15596;DHT22;7898;48.658;9.068;2023-02-26T08:24:29;-0.20;99.90
15596;DHT22;7898;48.658;9.068;2023-02-26T08:26:55;-1.00;99.90
15596;DHT22;7898;48.658;9.068;2023-02-26T08:29:23;-0.60;99.90
15596;DHT22;7898;48.658;9.068;2023-02-26T08:31:50;-0.30;99.90
15596;DHT22;7898;48.658;9.068;2023-02-26T08:34:17;0.60;99.90
15596;DHT22;7898;48.658;9.068;2023-02-26T08:36:44;1.00;99.90
15596;DHT22;7898;48.658;9.068;2023-02-26T08:39:12;1.30;99.90
15596;DHT22;7898;48.658;9.068;2023-02-26T08:41:39;0.70;99.90
15596;DHT22;7898;48.658;9.068;2023-02-26T08:44:06;0.70;99.90
15596;DHT22;7898;48.658;9.068;2023-02-26T08:46:33;0.30;99.90
15596;DHT22;7898;48.658;9.068;2023-02-26T08:49:00;-0.10;99.90
15596;DHT22;7898;48.658;9.068;2023-02-26T08:51:27;-0.10;99.90
15596;DHT22;7898;48.658;9.068;2023-02-26T08:53:54;-0.10;99.90
15596;DHT22;7898;48.658;9.068;2023-02-26T08:56:23;-0.20;99.90
15596;DHT22;7898;48.658;9.068;2023-02-26T08:58:50;0.50;99.90
15596;DHT22;7898;48.658;9.068;2023-02-26T09:01:17;-0.10;99.90
15596;DHT22;7898;48.658;9.068;2023-02-26T09:03:44;-0.80;99.90
15596;DHT22;7898;48.658;9.068;2023-02-26T09:06:10;-1.00;99.90
15596;DHT22;7898;48.658;9.068;2023-02-26T09:08:37;-1.20;99.90
15596;DHT22;7898;48.658;9.068;2023-02-26T09:11:04;-1.10;99.90
15596;DHT22;7898;48.658;9.068;2023-02-26T09:13:32;-1.20;99.90
15596;DHT22;7898;48.658;9.068;2023-02-26T09:15:59;-1.30;99.90
15596;DHT22;7898;48.658;9.068;2023-02-26T09:18:26;-1.30;99.90
15596;DHT22;7898;48.658;9.068;2023-02-26T09:20:53;-1.30;99.90
15596;DHT22;7898;48.658;9.068;2023-02-26T09:23:20;-0.40;99.90
15596;DHT22;7898;48.658;9.068;2023-02-26T09:25:51;-1.30;99.90
15596;DHT22;7898;48.658;9.068;2023-02-26T09:28:19;-1.30;99.90
15596;DHT22;7898;48.658;9.068;2023-02-26T09:30:50;-1.30;99.90
15596;DHT22;7898;48.658;9.068;2023-02-26T09:33:17;-0.70;99.90
15596;DHT22;7898;48.658;9.068;2023-02-26T09:35:46;-1.30;99.90
15596;DHT22;7898;48.658;9.068;2023-02-26T09:38:14;-1.30;99.90
15596;DHT22;7898;48.658;9.068;2023-02-26T09:40:44;-0.60;99.90
15596;DHT22;7898;48.658;9.068;2023-02-26T09:43:27;-1.10;99.90
15596;DHT22;7898;48.658;9.068;2023-02-26T09:46:00;-1.00;99.90
15596;DHT22;7898;48.658;9.068;2023-02-26T09:48:29;-1.00;99.90
15596;DHT22;7898;48.658;9.068;2023-02-26T09:50:58;-0.90;99.90
15596;DHT22;7898;48.658;9.068;2023-02-26T09:53:26;-0.40;99.90
15596;DHT22;7898;48.658;9.068;2023-02-26T09:56:00;-0.50;99.90
15596;DHT22;7898;48.658;9.068;2023-02-26T09:58:29;-0.40;99.90
15596;DHT22;7898;48.658;9.068;2023-02-26T10:01:03;-1.10;99.90
15596;DHT22;7898;48.658;9.068;2023-02-26T10:03:38;-1.00;99.90
15596;DHT22;7898;48.658;9.068;2023-02-26T10:06:21;-0.70;99.90
15596;DHT22;7898;48.658;9.068;2023-02-26T10:09:14;-0.90;99.90
15596;DHT22;7898;48.658;9.068;2023-02-26T10:11:48;-1.00;99.90
15596;DHT22;7898;48.658;9.068;2023-02-26T10:14:18;-1.10;99.90
15596;DHT22;7898;48.658;9.068;2023-02-26T10:16:53;-1.10;99.90
15596;DHT22;7898;48.658;9.068;2023-02-26T10:19:26;-1.10;99.90
15596;DHT22;7898;48.658;9.068;2023-02-26T10:21:56;-1.00;99.90
15596;DHT22;7898;48.658;9.068;2023-02-26T10:24:26;-0.90;99.90
15596;DHT22;7898;48.658;9.068;2023-02-26T10:26:59;-0.20;99.90
15596;DHT22;7898;48.658;9.068;2023-02-26T10:29:33;-0.30;99.90
15596;DHT22;7898;48.658;9.068;2023-02-26T10:32:11;-1.00;99.90
15596;DHT22;7898;48.658;9.068;2023-02-26T10:34:48;-0.50;99.90
15596;DHT22;7898;48.658;9.068;2023-02-26T10:37:18;-0.90;99.90
15596;DHT22;7898;48.658;9.068;2023-02-26T10:39:50;-0.60;99.90
15596;DHT22;7898;48.658;9.068;2023-02-26T10:42:21;-0.80;99.90
15596;DHT22;7898;48.658;9.068;2023-02-26T10:45:01;-0.60;99.90
15596;DHT22;7898;48.658;9.068;2023-02-26T10:47:38;-0.70;99.90
15596;DHT22;7898;48.658;9.068;2023-02-26T10:50:10;-0.70;99.90
15596;DHT22;7898;48.658;9.068;2023-02-26T10:52:37;-0.20;99.90
15596;DHT22;7898;48.658;9.068;2023-02-26T10:55:18;-0.60;99.90
15596;DHT22;7898;48.658;9.068;2023-02-26T10:57:54;-0.50;99.90
15596;DHT22;7898;48.658;9.068;2023-02-26T11:00:22;-0.60;99.90
15596;DHT22;7898;48.658;9.068;2023-02-26T11:02:52;-0.60;99.90
15596;DHT22;7898;48.658;9.068;2023-02-26T11:05:22;-0.50;99.90
15596;DHT22;7898;48.658;9.068;2023-02-26T11:07:53;-0.60;99.90
15596;DHT22;7898;48.658;9.068;2023-02-26T11:10:23;-0.50;99.90
15596;DHT22;7898;48.658;9.068;2023-02-26T11:12:51;-0.50;99.90
15596;DHT22;7898;48.658;9.068;2023-02-26T11:15:20;-0.20;99.90
15596;DHT22;7898;48.658;9.068;2023-02-26T11:17:55;-0.40;99.90
15596;DHT22;7898;48.658;9.068;2023-02-26T11:20:29;-0.30;99.90
15596;DHT22;7898;48.658;9.068;2023-02-26T11:22:58;-0.10;99.90
15596;DHT22;7898;48.658;9.068;2023-02-26T11:25:28;0.20;99.90
15596;DHT22;7898;48.658;9.068;2023-02-26T11:28:00;0.30;99.90
15596;DHT22;7898;48.658;9.068;2023-02-26T11:30:31;0.30;99.90
15596;DHT22;7898;48.658;9.068;2023-02-26T11:33:17;0.10;99.90
15596;DHT22;7898;48.658;9.068;2023-02-26T11:35:47;0.10;99.90
15596;DHT22;7898;48.658;9.068;2023-02-26T11:38:20;0.10;99.90
15596;DHT22;7898;48.658;9.068;2023-02-26T11:40:50;0.20;99.90
15596;DHT22;7898;48.658;9.068;2023-02-26T11:43:20;0.20;99.90
15596;DHT22;7898;48.658;9.068;2023-02-26T11:45:54;0.20;99.90
15596;DHT22;7898;48.658;9.068;2023-02-26T11:48:37;0.20;99.90
15596;DHT22;7898;48.658;9.068;2023-02-26T11:51:06;0.20;99.90
15596;DHT22;7898;48.658;9.068;2023-02-26T11:53:36;0.20;99.90
15596;DHT22;7898;48.658;9.068;2023-02-26T11:56:10;0.10;99.90
15596;DHT22;7898;48.658;9.068;2023-02-26T11:58:39;0.10;99.90
15596;DHT22;7898;48.658;9.068;2023-02-26T12:01:13;0.00;99.90
15596;DHT22;7898;48.658;9.068;2023-02-26T12:03:47;0.90;99.90
15596;DHT22;7898;48.658;9.068;2023-02-26T12:06:16;0.20;99.90
15596;DHT22;7898;48.658;9.068;2023-02-26T12:08:47;0.20;99.90
15596;DHT22;7898;48.658;9.068;2023-02-26T12:14:41;0.30;99.90
15596;DHT22;7898;48.658;9.068;2023-02-26T12:17:27;0.10;99.90
15596;DHT22;7898;48.658;9.068;2023-02-26T12:20:06;0.10;99.90
15596;DHT22;7898;48.658;9.068;2023-02-26T12:22:48;0.80;99.90
15596;DHT22;7898;48.658;9.068;2023-02-26T12:25:38;0.10;99.90
15596;DHT22;7898;48.658;9.068;2023-02-26T12:31:32;0.10;99.90
15596;DHT22;7898;48.658;9.068;2023-02-26T12:34:17;-0.10;99.90
15596;DHT22;7898;48.658;9.068;2023-02-26T12:37:03;-0.20;99.90
15596;DHT22;7898;48.658;9.068;2023-02-26T12:39:43;-0.20;99.90
15596;DHT22;7898;48.658;9.068;2023-02-26T12:42:21;-0.20;99.90
15596;DHT22;7898;48.658;9.068;2023-02-26T12:48:03;0.00;99.90
15596;DHT22;7898;48.658;9.068;2023-02-26T12:50:47;0.10;99.90
15596;DHT22;7898;48.658;9.068;2023-02-26T12:53:38;0.10;99.90
15596;DHT22;7898;48.658;9.068;2023-02-26T12:56:45;0.40;99.90
15596;DHT22;7898;48.658;9.068;2023-02-26T12:59:33;-0.10;99.90
15596;DHT22;7898;48.658;9.068;2023-02-26T13:02:29;-0.10;99.90
15596;DHT22;7898;48.658;9.068;2023-02-26T13:05:11;0.00;99.90
15596;DHT22;7898;48.658;9.068;2023-02-26T13:08:04;0.00;99.90
15596;DHT22;7898;48.658;9.068;2023-02-26T13:10:48;0.00;99.90
15596;DHT22;7898;48.658;9.068;2023-02-26T13:13:48;0.00;99.90
15596;DHT22;7898;48.658;9.068;2023-02-26T13:16:35;0.10;99.90
15596;DHT22;7898;48.658;9.068;2023-02-26T13:19:14;0.20;99.90
15596;DHT22;7898;48.658;9.068;2023-02-26T13:21:47;0.90;99.90
15596;DHT22;7898;48.658;9.068;2023-02-26T13:24:21;0.50;99.90
15596;DHT22;7898;48.658;9.068;2023-02-26T13:26:52;0.30;99.90
15596;DHT22;7898;48.658;9.068;2023-02-26T13:29:23;0.30;99.90
15596;DHT22;7898;48.658;9.068;2023-02-26T13:31:54;0.40;99.90
15596;DHT22;7898;48.658;9.068;2023-02-26T13:34:33;0.50;99.90
15596;DHT22;7898;48.658;9.068;2023-02-26T13:37:04;1.00;99.90
15596;DHT22;7898;48.658;9.068;2023-02-26T13:39:38;0.50;99.90
15596;DHT22;7898;48.658;9.068;2023-02-26T13:42:20;1.10;99.90
15596;DHT22;7898;48.658;9.068;2023-02-26T13:44:58;0.30;99.90
15596;DHT22;7898;48.658;9.068;2023-02-26T13:47:39;1.10;99.90
15596;DHT22;7898;48.658;9.068;2023-02-26T13:50:22;0.70;99.90
15596;DHT22;7898;48.658;9.068;2023-02-26T13:52:54;0.60;99.90
15596;DHT22;7898;48.658;9.068;2023-02-26T13:55:42;0.30;99.90
15596;DHT22;7898;48.658;9.068;2023-02-26T13:58:27;0.40;99.90
15596;DHT22;7898;48.658;9.068;2023-02-26T14:00:59;0.40;99.90
15596;DHT22;7898;48.658;9.068;2023-02-26T14:03:31;0.40;99.90
15596;DHT22;7898;48.658;9.068;2023-02-26T14:09:29;0.70;99.90
15596;DHT22;7898;48.658;9.068;2023-02-26T14:11:58;0.80;99.90
15596;DHT22;7898;48.658;9.068;2023-02-26T14:14:34;0.90;99.90
15596;DHT22;7898;48.658;9.068;2023-02-26T14:17:28;0.90;99.90
15596;DHT22;7898;48.658;9.068;2023-02-26T14:20:20;1.00;99.90
15596;DHT22;7898;48.658;9.068;2023-02-26T14:22:50;1.00;99.90
15596;DHT22;7898;48.658;9.068;2023-02-26T14:25:20;1.30;99.90
15596;DHT22;7898;48.658;9.068;2023-02-26T14:31:07;3.70;99.90
15596;DHT22;7898;48.658;9.068;2023-02-26T14:33:39;3.40;99.90
15596;DHT22;7898;48.658;9.068;2023-02-26T14:36:15;2.70;99.90
15596;DHT22;7898;48.658;9.068;2023-02-26T14:38:43;2.30;99.90
15596;DHT22;7898;48.658;9.068;2023-02-26T14:41:22;2.20;99.90
15596;DHT22;7898;48.658;9.068;2023-02-26T14:43:57;2.40;99.90
15596;DHT22;7898;48.658;9.068;2023-02-26T14:46:27;2.70;99.90
15596;DHT22;7898;48.658;9.068;2023-02-26T14:48:54;3.80;99.90
15596;DHT22;7898;48.658;9.068;2023-02-26T14:51:33;5.00;99.90
15596;DHT22;7898;48.658;9.068;2023-02-26T14:54:22;5.20;99.90
15596;DHT22;7898;48.658;9.068;2023-02-26T14:57:02;4.50;99.90
15596;DHT22;7898;48.658;9.068;2023-02-26T14:59:58;4.50;99.90
15596;DHT22;7898;48.658;9.068;2023-02-26T15:02:44;4.70;99.90
15596;DHT22;7898;48.658;9.068;2023-02-26T15:05:26;4.60;99.90
15596;DHT22;7898;48.658;9.068;2023-02-26T15:08:15;4.10;99.90
15596;DHT22;7898;48.658;9.068;2023-02-26T15:10:55;3.50;99.90
15596;DHT22;7898;48.658;9.068;2023-02-26T15:13:39;2.80;99.90
15596;DHT22;7898;48.658;9.068;2023-02-26T15:16:18;2.30;99.90
15596;DHT22;7898;48.658;9.068;2023-02-26T15:19:08;2.00;99.90
15596;DHT22;7898;48.658;9.068;2023-02-26T15:21:46;2.00;99.90
15596;DHT22;7898;48.658;9.068;2023-02-26T15:24:17;2.10;99.90
15596;DHT22;7898;48.658;9.068;2023-02-26T15:26:47;2.00;99.90
15596;DHT22;7898;48.658;9.068;2023-02-26T15:29:15;2.00;99.90
15596;DHT22;7898;48.658;9.068;2023-02-26T15:31:44;2.10;99.90
15596;DHT22;7898;48.658;9.068;2023-02-26T15:34:15;2.00;99.90
15596;DHT22;7898;48.658;9.068;2023-02-26T15:36:44;1.70;99.90
15596;DHT22;7898;48.658;9.068;2023-02-26T15:39:12;1.50;99.90
15596;DHT22;7898;48.658;9.068;2023-02-26T15:41:40;1.30;99.90
15596;DHT22;7898;48.658;9.068;2023-02-26T15:44:09;1.20;99.90
15596;DHT22;7898;48.658;9.068;2023-02-26T15:46:41;1.00;99.90
15596;DHT22;7898;48.658;9.068;2023-02-26T15:49:14;0.90;99.90
15596;DHT22;7898;48.658;9.068;2023-02-26T15:51:46;0.80;99.90
15596;DHT22;7898;48.658;9.068;2023-02-26T15:54:16;1.20;99.90
15596;DHT22;7898;48.658;9.068;2023-02-26T15:56:45;1.10;99.90
15596;DHT22;7898;48.658;9.068;2023-02-26T15:59:16;1.70;99.90
15596;DHT22;7898;48.658;9.068;2023-02-26T16:01:44;0.70;99.90
15596;DHT22;7898;48.658;9.068;2023-02-26T16:04:14;0.70;99.90
15596;DHT22;7898;48.658;9.068;2023-02-26T16:06:44;0.70;99.90
15596;DHT22;7898;48.658;9.068;2023-02-26T16:09:16;0.70;99.90
15596;DHT22;7898;48.658;9.068;2023-02-26T16:11:45;0.80;99.90
15596;DHT22;7898;48.658;9.068;2023-02-26T16:14:16;0.80;99.90
15596;DHT22;7898;48.658;9.068;2023-02-26T16:16:46;0.80;99.90
15596;DHT22;7898;48.658;9.068;2023-02-26T16:19:16;0.80;99.90
15596;DHT22;7898;48.658;9.068;2023-02-26T16:21:46;0.80;99.90
15596;DHT22;7898;48.658;9.068;2023-02-26T16:24:16;0.80;99.90
15596;DHT22;7898;48.658;9.068;2023-02-26T16:26:47;0.80;99.90
15596;DHT22;7898;48.658;9.068;2023-02-26T16:29:16;0.70;99.90
15596;DHT22;7898;48.658;9.068;2023-02-26T16:31:48;0.70;99.90
15596;DHT22;7898;48.658;9.068;2023-02-26T16:34:28;0.60;99.90
15596;DHT22;7898;48.658;9.068;2023-02-26T16:36:56;0.60;99.90
15596;DHT22;7898;48.658;9.068;2023-02-26T16:39:25;0.90;99.90
15596;DHT22;7898;48.658;9.068;2023-02-26T16:42:02;0.50;99.90